Time;durP1;ratioP1;P1;durP2;ratioP2;P2;SDS_P1;SDS_P2;PMS_P1;PMS_P2;Temp;Humidity;BMP_temperature;BMP_pressure;BME280_temperature;BME280_humidity;BME280_pressure;Samples;Min_cycle;Max_cycle;Signal;HPM_P1;HPM_P2
2021/03/03 00:02:08;;;;;;;5.07;4.05;;;7.30;99.90;;;;;;4991608;28;20402;-71
2021/03/03 00:04:34;;;;;;;8.93;4.50;;;7.60;99.90;;;;;;4991318;28;20402;-68
2021/03/03 00:06:59;;;;;;;5.87;4.10;;;8.40;99.90;;;;;;4991840;28;20379;-68
2021/03/03 00:09:25;;;;;;;5.63;4.30;;;8.80;99.90;;;;;;4990815;28;20441;-68
2021/03/03 00:11:51;;;;;;;9.37;5.20;;;7.00;99.90;;;;;;4991720;28;20807;-68
2021/03/03 00:14:16;;;;;;;7.43;4.50;;;6.90;99.90;;;;;;4990998;28;20390;-68
2021/03/03 00:16:42;;;;;;;6.67;4.20;;;8.10;99.90;;;;;;4991325;28;20386;-68
2021/03/03 00:19:08;;;;;;;6.33;4.30;;;7.10;99.90;;;;;;4991491;28;20383;-71
2021/03/03 00:21:33;;;;;;;6.00;4.40;;;6.80;99.90;;;;;;4990785;28;20509;-69
2021/03/03 00:23:59;;;;;;;6.05;4.32;;;6.70;99.90;;;;;;4991465;28;20521;-68
2021/03/03 00:26:27;;;;;;;4.80;4.30;;;6.90;99.90;;;;;;4990284;28;20835;-69
2021/03/03 00:28:54;;;;;;;8.50;4.85;;;7.40;99.90;;;;;;4991466;28;20409;-70
2021/03/03 00:31:19;;;;;;;6.07;5.18;;;8.10;99.90;;;;;;4990608;28;20394;-68
2021/03/03 00:33:45;;;;;;;7.13;4.57;;;7.00;99.90;;;;;;4991529;28;20388;-68
2021/03/03 00:36:10;;;;;;;9.45;4.80;;;7.40;99.90;;;;;;4994856;28;20484;-71
2021/03/03 00:38:36;;;;;;;7.45;4.80;;;6.80;99.90;;;;;;5010490;28;20948;-68
2021/03/03 00:41:02;;;;;;;6.90;4.60;;;8.30;99.90;;;;;;5010744;28;20396;-68
2021/03/03 00:43:28;;;;;;;5.15;4.43;;;6.60;99.90;;;;;;5010141;28;20423;-69
2021/03/03 00:45:53;;;;;;;6.10;4.20;;;6.60;99.90;;;;;;5025425;28;20393;-68
2021/03/03 00:48:19;;;;;;;6.73;4.67;;;6.90;99.90;;;;;;5009735;28;20442;-69
2021/03/03 00:50:44;;;;;;;5.30;4.10;;;6.60;99.90;;;;;;5010379;28;20420;-68
2021/03/03 00:53:11;;;;;;;8.35;4.40;;;6.90;99.90;;;;;;5010586;28;20457;-71
2021/03/03 00:55:37;;;;;;;6.82;4.35;;;7.40;99.90;;;;;;5010067;28;20447;-69
2021/03/03 00:58:03;;;;;;;5.40;4.07;;;7.10;99.90;;;;;;5010934;28;20861;-68
2021/03/03 01:00:28;;;;;;;8.13;4.50;;;7.00;99.90;;;;;;5009713;28;20397;-68
2021/03/03 01:02:54;;;;;;;5.13;4.35;;;6.70;99.90;;;;;;5010622;28;20405;-68
2021/03/03 01:05:20;;;;;;;6.28;4.22;;;6.90;99.90;;;;;;5025109;28;20420;-69
2021/03/03 01:07:46;;;;;;;7.15;4.88;;;6.60;99.90;;;;;;5010564;28;20685;-69
2021/03/03 01:10:11;;;;;;;6.70;4.00;;;6.70;99.90;;;;;;5010136;28;20439;-72
2021/03/03 01:12:37;;;;;;;6.32;4.05;;;6.80;99.90;;;;;;5010456;28;20860;-68
2021/03/03 01:15:04;;;;;;;5.00;4.20;;;6.80;99.90;;;;;;5010953;28;20421;-69
2021/03/03 01:17:29;;;;;;;5.10;4.25;;;6.30;99.90;;;;;;5009720;28;20717;-68
2021/03/03 01:19:55;;;;;;;5.80;3.80;;;6.60;99.90;;;;;;5010582;28;20392;-68
2021/03/03 01:22:21;;;;;;;9.52;4.53;;;6.80;99.90;;;;;;5009532;28;20447;-68
2021/03/03 01:24:46;;;;;;;5.10;3.70;;;8.00;99.90;;;;;;5010498;28;20922;-68
2021/03/03 01:27:12;;;;;;;6.20;3.80;;;7.40;99.90;;;;;;5024951;28;20435;-72
2021/03/03 01:29:37;;;;;;;8.00;4.10;;;7.20;99.90;;;;;;5009767;28;20948;-68
2021/03/03 01:32:03;;;;;;;7.00;3.97;;;7.50;99.90;;;;;;5011893;28;20400;-68
2021/03/03 01:34:29;;;;;;;5.03;4.10;;;6.60;99.90;;;;;;5013366;28;20381;-68
2021/03/03 01:36:54;;;;;;;6.30;3.83;;;8.20;99.90;;;;;;5003925;28;20439;-68
2021/03/03 01:39:20;;;;;;;6.18;3.95;;;6.60;99.90;;;;;;4993630;28;20901;-68
2021/03/03 01:41:45;;;;;;;6.63;4.07;;;6.30;99.90;;;;;;4994489;28;20468;-68
2021/03/03 01:44:11;;;;;;;5.57;4.40;;;6.40;99.90;;;;;;4994377;28;20794;-68
2021/03/03 01:46:37;;;;;;;6.43;3.58;;;7.80;99.90;;;;;;4993680;28;20450;-68
2021/03/03 01:49:02;;;;;;;5.45;3.55;;;6.50;99.90;;;;;;4994499;28;20493;-68
2021/03/03 01:51:29;;;;;;;4.72;3.88;;;6.60;99.90;;;;;;4993601;28;20977;-68
2021/03/03 01:53:55;;;;;;;5.28;3.78;;;6.10;99.90;;;;;;4994425;28;20390;-67
2021/03/03 01:56:20;;;;;;;6.45;4.10;;;7.40;99.90;;;;;;4993414;28;20898;-67
2021/03/03 01:58:46;;;;;;;4.80;3.60;;;6.40;99.90;;;;;;4994262;28;20398;-69
2021/03/03 02:01:12;;;;;;;5.03;3.73;;;6.30;99.90;;;;;;4994002;28;20458;-68
2021/03/03 02:03:39;;;;;;;8.20;3.70;;;7.80;99.90;;;;;;4993400;28;20596;-68
2021/03/03 02:06:14;;;;;;;5.95;3.80;;;7.20;99.90;;;;;;4994226;28;20402;-68
2021/03/03 02:08:47;;;;;;;5.18;4.28;;;5.90;99.90;;;;;;4993697;28;20390;-68
2021/03/03 02:11:39;;;;;;;3.80;3.35;;;6.30;99.90;;;;;;4993972;28;20437;-68
2021/03/03 02:14:08;;;;;;;7.05;4.30;;;7.20;99.90;;;;;;4994134;28;20387;-68
2021/03/03 02:16:36;;;;;;;5.18;4.20;;;6.60;99.90;;;;;;4993374;28;20502;-68
2021/03/03 02:19:04;;;;;;;4.07;3.67;;;7.20;99.90;;;;;;4993826;28;20407;-68
2021/03/03 02:21:39;;;;;;;5.97;3.63;;;7.10;99.90;;;;;;4992893;28;20409;-68
2021/03/03 02:24:12;;;;;;;6.40;4.25;;;6.50;99.90;;;;;;4993753;28;20398;-68
2021/03/03 02:26:39;;;;;;;5.03;3.53;;;6.30;99.90;;;;;;4992533;28;20402;-68
2021/03/03 02:29:10;;;;;;;5.07;3.50;;;7.10;99.90;;;;;;4993564;28;20391;-68
2021/03/03 02:31:38;;;;;;;4.20;3.70;;;6.20;99.90;;;;;;4992926;28;20461;-68
2021/03/03 02:34:06;;;;;;;3.53;3.22;;;6.70;99.90;;;;;;4993590;28;20387;-68
2021/03/03 02:36:32;;;;;;;5.97;3.80;;;6.70;99.90;;;;;;4999715;28;20416;-68
2021/03/03 02:38:59;;;;;;;5.80;4.20;;;6.00;99.90;;;;;;5012800;28;20393;-68
2021/03/03 02:41:25;;;;;;;5.53;3.35;;;6.30;99.90;;;;;;5012311;28;20417;-68
2021/03/03 02:43:51;;;;;;;5.80;3.60;;;6.30;99.90;;;;;;5011717;28;20384;-68
2021/03/03 02:46:18;;;;;;;4.10;3.50;;;6.80;99.90;;;;;;5012494;28;20385;-71
2021/03/03 02:48:47;;;;;;;4.30;3.58;;;8.00;99.90;;;;;;5012420;28;20377;-67
2021/03/03 02:51:13;;;;;;;4.90;3.60;;;6.60;99.90;;;;;;5012887;28;20805;-68
2021/03/03 02:53:42;;;;;;;8.13;3.80;;;6.60;99.90;;;;;;5011773;28;20472;-68
2021/03/03 02:56:09;;;;;;;4.53;3.50;;;6.20;99.90;;;;;;5012777;28;20377;-67
2021/03/03 02:58:35;;;;;;;7.38;3.67;;;6.30;99.90;;;;;;5011875;28;20385;-67
2021/03/03 03:01:04;;;;;;;4.57;3.40;;;6.90;99.90;;;;;;5013113;28;20470;-67
2021/03/03 03:04:06;;;;;;;3.78;3.17;;;6.20;99.90;;;;;;5011914;28;20400;-67
2021/03/03 03:06:40;;;;;;;6.63;4.07;;;6.80;99.90;;;;;;5009541;28;20711;-67
2021/03/03 03:09:09;;;;;;;6.65;3.10;;;5.90;99.90;;;;;;5012322;28;20396;-67
2021/03/03 03:11:39;;;;;;;4.43;3.45;;;6.20;99.90;;;;;;5011867;28;20408;-67
2021/03/03 03:14:09;;;;;;;4.43;3.60;;;6.80;99.90;;;;;;5012453;28;20480;-67
2021/03/03 03:16:37;;;;;;;6.07;3.67;;;7.10;99.90;;;;;;5011925;28;20875;-68
2021/03/03 03:19:07;;;;;;;6.22;3.95;;;5.50;99.90;;;;;;5012572;28;20897;-67
2021/03/03 03:21:38;;;;;;;5.93;3.90;;;6.20;99.90;;;;;;5011499;28;20420;-67
2021/03/03 03:24:05;;;;;;;4.70;3.30;;;7.50;99.90;;;;;;5012559;28;20388;-67
2021/03/03 03:26:32;;;;;;;4.47;3.10;;;6.00;99.90;;;;;;5011460;28;20396;-68
2021/03/03 03:28:58;;;;;;;4.17;3.30;;;7.20;99.90;;;;;;5012401;28;20389;-68
2021/03/03 03:31:24;;;;;;;6.60;3.47;;;6.90;99.90;;;;;;5011709;28;20391;-68
2021/03/03 03:33:51;;;;;;;5.07;3.40;;;7.30;99.90;;;;;;5012299;28;20388;-67
2021/03/03 03:36:17;;;;;;;4.65;3.60;;;6.20;99.90;;;;;;5012159;28;20385;-67
2021/03/03 03:38:42;;;;;;;4.30;3.00;;;6.60;99.90;;;;;;5011461;28;20695;-67
2021/03/03 03:41:09;;;;;;;6.30;3.10;;;5.90;99.90;;;;;;5012496;28;20421;-68
2021/03/03 03:43:37;;;;;;;5.00;3.00;;;6.70;99.90;;;;;;5011453;28;20385;-69
2021/03/03 03:46:05;;;;;;;4.53;3.65;;;6.40;99.90;;;;;;5011889;28;20381;-69
2021/03/03 03:48:37;;;;;;;5.57;3.20;;;6.60;99.90;;;;;;5011125;28;20397;-68
2021/03/03 03:51:06;;;;;;;6.87;3.37;;;5.60;99.90;;;;;;5012265;28;20388;-68
2021/03/03 03:53:32;;;;;;;3.50;3.20;;;5.70;99.90;;;;;;5010749;28;20416;-68
2021/03/03 03:55:59;;;;;;;4.95;3.70;;;5.70;99.90;;;;;;5011740;28;20861;-67
2021/03/03 03:58:25;;;;;;;5.40;2.72;;;7.10;99.90;;;;;;5011302;28;20479;-68
2021/03/03 04:00:51;;;;;;;4.18;2.92;;;6.20;99.90;;;;;;5012165;28;20439;-68
2021/03/03 04:03:16;;;;;;;4.37;3.00;;;5.80;99.90;;;;;;5003405;28;20428;-69
2021/03/03 04:05:43;;;;;;;3.57;2.93;;;7.00;99.90;;;;;;5007492;28;20381;-69
2021/03/03 04:08:09;;;;;;;3.38;2.83;;;6.10;99.90;;;;;;5006056;28;20380;-69
2021/03/03 04:10:34;;;;;;;5.00;3.20;;;6.20;99.90;;;;;;5022638;28;20405;-68
2021/03/03 04:13:00;;;;;;;3.90;3.50;;;6.40;99.90;;;;;;5005157;28;20399;-69
2021/03/03 04:15:26;;;;;;;4.87;3.10;;;6.00;99.90;;;;;;5005614;28;20869;-71
2021/03/03 04:17:52;;;;;;;4.70;3.10;;;6.70;99.90;;;;;;5006745;28;20385;-68
2021/03/03 04:20:19;;;;;;;6.88;2.97;;;6.00;99.90;;;;;;5003298;28;20385;-69
2021/03/03 04:22:45;;;;;;;4.68;3.13;;;7.40;99.90;;;;;;5006780;28;20409;-68
2021/03/03 04:25:13;;;;;;;5.17;3.63;;;6.60;99.90;;;;;;5006133;28;20472;-68
2021/03/03 04:27:39;;;;;;;5.68;3.70;;;6.10;99.90;;;;;;5005748;28;20417;-69
2021/03/03 04:30:16;;;;;;;4.60;3.15;;;8.10;99.90;;;;;;5006476;28;20427;-68
2021/03/03 04:32:42;;;;;;;5.68;2.60;;;6.10;99.90;;;;;;5004597;28;20393;-69
2021/03/03 04:35:08;;;;;;;5.18;3.30;;;6.30;99.90;;;;;;5001767;28;20401;-68
2021/03/03 04:37:34;;;;;;;6.55;3.70;;;6.00;99.90;;;;;;5004484;28;20399;-68
2021/03/03 04:40:00;;;;;;;3.20;2.90;;;6.70;99.90;;;;;;5006551;28;20397;-69
2021/03/03 04:42:26;;;;;;;4.75;2.80;;;6.30;99.90;;;;;;5005067;28;20814;-72
2021/03/03 04:44:52;;;;;;;4.60;3.20;;;5.70;99.90;;;;;;5006709;28;20770;-68
2021/03/03 04:47:17;;;;;;;4.37;3.33;;;6.00;99.90;;;;;;5006004;28;20393;-68
2021/03/03 04:49:43;;;;;;;3.20;2.90;;;7.10;99.90;;;;;;5022810;28;20392;-68
2021/03/03 04:52:09;;;;;;;6.57;3.43;;;6.20;99.90;;;;;;5005253;28;20416;-71
2021/03/03 04:54:35;;;;;;;5.30;3.28;;;6.40;99.90;;;;;;5004385;28;20377;-68
2021/03/03 04:57:02;;;;;;;5.20;2.67;;;6.20;99.90;;;;;;5013499;28;20435;-69
2021/03/03 04:59:28;;;;;;;13.30;4.50;;;6.20;99.90;;;;;;5005357;28;20498;-69
2021/03/03 05:01:54;;;;;;;4.30;3.50;;;6.40;99.90;;;;;;5001362;28;20448;-68
2021/03/03 05:04:20;;;;;;;4.93;3.20;;;6.30;99.90;;;;;;5005094;28;20389;-68
2021/03/03 05:06:45;;;;;;;6.90;3.85;;;7.70;99.90;;;;;;5006237;28;20392;-68
2021/03/03 05:09:11;;;;;;;3.50;3.00;;;6.80;99.90;;;;;;5006256;28;20407;-69
2021/03/03 05:11:36;;;;;;;4.60;3.10;;;6.90;99.90;;;;;;5021589;28;20751;-69
2021/03/03 05:14:02;;;;;;;5.00;3.50;;;7.30;99.90;;;;;;5006556;28;20384;-69
2021/03/03 05:16:28;;;;;;;4.27;3.17;;;6.30;99.90;;;;;;5005181;28;20515;-72
2021/03/03 05:18:53;;;;;;;3.20;2.80;;;8.40;99.90;;;;;;5018616;28;20494;-69
2021/03/03 05:21:19;;;;;;;6.23;3.43;;;6.00;99.90;;;;;;5006237;28;20905;-68
2021/03/03 05:23:45;;;;;;;7.07;3.33;;;7.20;99.90;;;;;;5005908;28;20396;-68
2021/03/03 05:26:11;;;;;;;5.33;3.20;;;6.10;99.90;;;;;;5006028;28;20464;-68
2021/03/03 05:28:37;;;;;;;7.50;3.70;;;6.30;99.90;;;;;;5009550;28;20448;-68
2021/03/03 05:31:03;;;;;;;9.30;3.67;;;6.30;99.90;;;;;;5010606;28;20873;-68
2021/03/03 05:33:35;;;;;;;4.87;4.10;;;6.00;99.90;;;;;;5009889;28;20387;-71
2021/03/03 05:36:04;;;;;;;5.32;3.60;;;5.90;99.90;;;;;;5006894;28;20398;-68
2021/03/03 05:38:32;;;;;;;6.30;4.40;;;5.80;99.90;;;;;;4989798;28;20398;-71
2021/03/03 05:40:58;;;;;;;5.80;3.60;;;6.50;99.90;;;;;;4990389;28;20386;-68
2021/03/03 05:43:24;;;;;;;4.82;3.40;;;5.50;99.90;;;;;;5005405;28;20732;-68
2021/03/03 05:45:51;;;;;;;6.50;4.20;;;6.80;99.90;;;;;;4989684;28;20378;-72
2021/03/03 05:48:22;;;;;;;4.88;2.53;;;5.60;99.90;;;;;;4990697;28;20387;-68
2021/03/03 05:50:58;;;;;;;4.75;3.20;;;7.10;99.90;;;;;;4989627;28;20461;-68
2021/03/03 05:53:25;;;;;;;4.00;3.10;;;5.40;99.90;;;;;;4990817;28;20417;-70
2021/03/03 05:56:07;;;;;;;3.60;3.00;;;5.40;99.90;;;;;;5001162;28;20716;-69
2021/03/03 05:58:35;;;;;;;4.35;3.90;;;5.80;99.90;;;;;;5009747;28;20857;-69
2021/03/03 06:01:02;;;;;;;5.60;3.42;;;5.40;99.90;;;;;;5010506;28;20393;-68
2021/03/03 06:03:29;;;;;;;4.30;3.28;;;5.30;99.90;;;;;;5010292;28;20385;-70
2021/03/03 06:05:55;;;;;;;11.07;3.42;;;5.00;99.90;;;;;;5010169;28;20467;-68
2021/03/03 06:08:39;;;;;;;3.97;3.20;;;5.40;99.90;;;;;;5010768;28;20409;-69
2021/03/03 06:11:05;;;;;;;5.90;3.90;;;5.20;99.90;;;;;;5010408;28;20826;-68
2021/03/03 06:13:32;;;;;;;5.68;4.20;;;7.10;99.90;;;;;;5009897;28;20393;-68
2021/03/03 06:15:57;;;;;;;6.32;3.90;;;5.10;99.90;;;;;;5010817;28;20380;-68
2021/03/03 06:18:25;;;;;;;3.43;3.13;;;5.90;99.90;;;;;;5012571;28;20380;-68
2021/03/03 06:20:53;;;;;;;4.85;3.60;;;6.90;99.90;;;;;;5013693;28;20431;-68
2021/03/03 06:23:24;;;;;;;6.13;4.00;;;5.50;99.90;;;;;;5014214;28;20435;-68
2021/03/03 06:26:09;;;;;;;5.13;3.47;;;5.20;99.90;;;;;;5013563;28;20388;-68
2021/03/03 06:28:45;;;;;;;5.40;4.30;;;5.20;99.90;;;;;;5013789;28;20478;-68
2021/03/03 06:31:34;;;;;;;5.37;3.80;;;5.70;99.90;;;;;;5013910;28;20475;-69
2021/03/03 06:34:16;;;;;;;6.28;4.25;;;6.60;99.90;;;;;;5013667;28;20869;-68
2021/03/03 06:36:44;;;;;;;5.63;4.30;;;5.40;99.90;;;;;;5013366;28;20388;-69
2021/03/03 06:39:36;;;;;;;6.00;4.43;;;5.20;99.90;;;;;;5014190;28;20401;-68
2021/03/03 06:42:07;;;;;;;6.65;4.13;;;6.50;99.90;;;;;;5009247;28;20423;-68
2021/03/03 06:44:54;;;;;;;6.30;4.10;;;5.90;99.90;;;;;;5012848;28;20880;-69
2021/03/03 06:47:21;;;;;;;5.53;4.00;;;5.70;99.90;;;;;;5013207;28;20411;-69
2021/03/03 06:49:48;;;;;;;5.80;4.10;;;6.40;99.90;;;;;;5012871;28;20385;-68
2021/03/03 06:52:13;;;;;;;5.17;3.73;;;5.60;99.90;;;;;;5013093;28;20389;-68
2021/03/03 06:54:39;;;;;;;5.57;3.40;;;5.60;99.90;;;;;;5012864;28;20401;-69
2021/03/03 06:57:13;;;;;;;6.90;4.10;;;6.80;99.90;;;;;;5013442;28;20404;-68
2021/03/03 06:59:43;;;;;;;5.47;3.85;;;5.80;99.90;;;;;;5012775;28;20475;-69
2021/03/03 07:02:13;;;;;;;7.53;3.88;;;5.90;99.90;;;;;;5013267;28;20463;-68
2021/03/03 07:04:40;;;;;;;4.07;3.47;;;7.30;99.90;;;;;;5012017;28;21008;-69
2021/03/03 07:07:16;;;;;;;5.50;3.60;;;7.80;99.90;;;;;;5013048;28;20389;-68
2021/03/03 07:09:54;;;;;;;4.45;3.17;;;6.00;99.90;;;;;;5012282;28;20458;-67
2021/03/03 07:12:23;;;;;;;6.40;4.05;;;5.70;99.90;;;;;;5028409;28;20420;-67
2021/03/03 07:15:30;;;;;;;6.22;3.90;;;7.30;99.90;;;;;;5009763;28;20483;-71
2021/03/03 07:17:55;;;;;;;6.00;3.30;;;5.90;99.90;;;;;;4970794;28;20408;-71
2021/03/03 07:20:21;;;;;;;6.00;3.92;;;6.10;99.90;;;;;;4999986;28;20415;-69
2021/03/03 07:22:47;;;;;;;6.07;3.15;;;6.30;99.90;;;;;;4998547;28;20420;-71
2021/03/03 07:25:18;;;;;;;7.28;4.22;;;7.60;99.90;;;;;;4997148;28;20885;-70
2021/03/03 07:27:46;;;;;;;5.50;4.13;;;6.00;99.90;;;;;;4995180;28;20448;-69
2021/03/03 07:30:17;;;;;;;4.75;3.70;;;8.00;99.90;;;;;;4998206;28;20401;-70
2021/03/03 07:32:44;;;;;;;6.03;3.40;;;6.50;99.90;;;;;;4996624;28;20442;-71
2021/03/03 07:35:11;;;;;;;5.80;3.80;;;7.00;99.90;;;;;;4996760;28;20396;-69
2021/03/03 07:37:38;;;;;;;6.28;4.07;;;6.10;99.90;;;;;;4997930;28;20390;-72
2021/03/03 07:40:10;;;;;;;4.57;3.40;;;6.80;99.90;;;;;;4996804;28;20464;-72
2021/03/03 07:42:37;;;;;;;5.55;3.78;;;6.70;98.60;;;;;;5010660;28;20420;-69
2021/03/03 07:45:10;;;;;;;4.95;3.60;;;7.20;99.90;;;;;;4996260;28;20435;-71
2021/03/03 07:47:37;;;;;;;5.55;3.80;;;7.10;99.90;;;;;;4998368;28;20416;-71
2021/03/03 07:50:05;;;;;;;5.00;4.47;;;6.50;99.90;;;;;;4995241;28;20749;-69
2021/03/03 07:52:35;;;;;;;5.38;4.00;;;6.60;99.60;;;;;;4999471;28;20462;-68
2021/03/03 07:55:01;;;;;;;7.13;4.50;;;7.20;99.90;;;;;;4996815;28;20499;-69
2021/03/03 07:57:29;;;;;;;5.82;4.13;;;6.70;99.90;;;;;;4998668;28;20893;-68
2021/03/03 07:59:55;;;;;;;7.18;4.45;;;7.50;99.90;;;;;;4997936;28;20389;-67
2021/03/03 08:02:22;;;;;;;4.50;3.40;;;7.20;99.90;;;;;;4999743;28;20981;-68
2021/03/03 08:04:48;;;;;;;5.38;4.20;;;7.00;99.70;;;;;;4998875;28;20423;-68
2021/03/03 08:07:27;;;;;;;5.68;4.63;;;8.20;99.90;;;;;;4995425;28;20393;-70
2021/03/03 08:10:14;;;;;;;6.80;4.40;;;8.40;99.90;;;;;;4995537;28;20463;-68
2021/03/03 08:13:02;;;;;;;8.35;4.57;;;7.60;96.50;;;;;;5013884;28;20407;-68
2021/03/03 08:15:31;;;;;;;6.35;4.50;;;7.40;96.50;;;;;;4997966;28;20396;-69
2021/03/03 08:18:19;;;;;;;5.35;4.20;;;7.90;99.50;;;;;;4996381;28;20389;-67
2021/03/03 08:20:48;;;;;;;5.53;4.30;;;7.70;97.00;;;;;;4997085;28;20494;-67
2021/03/03 08:23:40;;;;;;;7.78;4.90;;;8.10;97.90;;;;;;4997466;28;20491;-68
2021/03/03 08:26:18;;;;;;;4.65;4.20;;;8.70;97.50;;;;;;5002836;28;20515;-68
2021/03/03 08:28:44;;;;;;;9.27;4.93;;;8.50;97.00;;;;;;5000721;28;20408;-69
2021/03/03 08:31:16;;;;;;;8.55;4.82;;;7.80;99.90;;;;;;5001793;28;20809;-66
2021/03/03 08:33:44;;;;;;;7.93;5.32;;;7.90;94.50;;;;;;5001019;28;20888;-67
2021/03/03 08:36:31;;;;;;;6.17;4.57;;;9.10;99.90;;;;;;5006934;28;20404;-71
2021/03/03 08:38:56;;;;;;;8.95;4.93;;;7.90;96.40;;;;;;5000383;28;20447;-68
2021/03/03 08:41:25;;;;;;;5.68;4.20;;;8.00;96.70;;;;;;5016157;28;20908;-68
2021/03/03 08:44:12;;;;;;;5.82;4.50;;;8.60;96.70;;;;;;5001919;28;20804;-68
2021/03/03 08:46:39;;;;;;;6.97;4.40;;;8.40;96.20;;;;;;4999129;28;20904;-69
2021/03/03 08:49:04;;;;;;;5.03;3.45;;;8.50;98.50;;;;;;5002977;28;20471;-68
2021/03/03 08:51:44;;;;;;;5.65;4.20;;;8.20;97.70;;;;;;5000528;28;20543;-68
2021/03/03 08:54:15;;;;;;;4.65;3.90;;;9.00;99.90;;;;;;5001473;28;20393;-69
2021/03/03 08:56:46;;;;;;;6.70;3.80;;;8.70;93.40;;;;;;4998836;28;21217;-69
2021/03/03 08:59:28;;;;;;;6.82;4.05;;;8.80;95.90;;;;;;5002258;28;20420;-69
2021/03/03 09:02:02;;;;;;;5.80;4.20;;;8.50;95.30;;;;;;5001349;28;21074;-67
2021/03/03 09:04:47;;;;;;;4.85;3.90;;;9.90;96.10;;;;;;5000300;28;20457;-69
2021/03/03 09:07:29;;;;;;;8.15;4.20;;;9.10;92.20;;;;;;4998704;28;20395;-70
2021/03/03 09:10:06;;;;;;;4.90;3.80;;;9.00;91.30;;;;;;5007754;28;20389;-67
2021/03/03 09:12:38;;;;;;;6.82;4.07;;;9.10;93.00;;;;;;5026604;28;20828;-68
2021/03/03 09:15:05;;;;;;;8.30;4.50;;;9.40;92.80;;;;;;5025682;28;20379;-67
2021/03/03 09:17:34;;;;;;;7.25;4.47;;;9.60;96.40;;;;;;5021217;28;20389;-67
2021/03/03 09:20:16;;;;;;;5.80;3.60;;;9.30;92.00;;;;;;5023485;28;20960;-67
2021/03/03 09:22:44;;;;;;;5.80;4.07;;;9.70;96.20;;;;;;5012684;28;20926;-68
2021/03/03 09:25:15;;;;;;;6.20;4.25;;;10.20;96.10;;;;;;5014804;28;20392;-67
2021/03/03 09:27:48;;;;;;;5.63;3.70;;;9.10;93.70;;;;;;5022908;28;20913;-68
2021/03/03 09:30:14;;;;;;;6.50;3.90;;;10.20;90.90;;;;;;5029111;28;20802;-67
2021/03/03 09:32:40;;;;;;;5.10;4.00;;;10.00;88.30;;;;;;5011934;28;20398;-67
2021/03/03 09:35:07;;;;;;;4.30;3.70;;;10.50;90.10;;;;;;5012033;28;20385;-66
2021/03/03 09:37:44;;;;;;;9.27;4.63;;;10.40;89.80;;;;;;5009948;28;20380;-66
2021/03/03 09:40:17;;;;;;;4.85;4.05;;;11.10;84.70;;;;;;5010231;28;20400;-69
2021/03/03 09:42:48;;;;;;;5.18;3.90;;;10.10;93.30;;;;;;5008285;28;20738;-66
2021/03/03 09:45:19;;;;;;;5.22;3.72;;;10.40;89.40;;;;;;5011248;28;20393;-69
2021/03/03 09:47:45;;;;;;;4.72;3.17;;;11.50;90.80;;;;;;4998245;28;20787;-68
2021/03/03 09:50:17;;;;;;;5.55;3.75;;;10.80;89.80;;;;;;5002343;28;20401;-68
2021/03/03 09:52:46;;;;;;;5.45;3.60;;;11.40;94.70;;;;;;5001085;28;20408;-68
2021/03/03 09:55:14;;;;;;;4.63;3.80;;;10.90;88.50;;;;;;5005528;28;20385;-68
2021/03/03 09:57:42;;;;;;;3.90;3.50;;;11.00;87.70;;;;;;5003008;28;20408;-70
2021/03/03 10:00:11;;;;;;;5.70;3.60;;;11.40;89.70;;;;;;5004913;28;20960;-68
2021/03/03 10:02:40;;;;;;;4.15;3.42;;;11.20;87.60;;;;;;5005600;28;20405;-68
2021/03/03 10:05:07;;;;;;;6.88;3.95;;;11.20;92.60;;;;;;5003775;28;20389;-68
2021/03/03 10:07:33;;;;;;;7.63;4.30;;;11.80;86.70;;;;;;5002620;28;20417;-70
2021/03/03 10:10:02;;;;;;;5.63;4.10;;;11.30;86.70;;;;;;5004619;28;21294;-71
2021/03/03 10:12:36;;;;;;;6.55;3.80;;;11.70;93.30;;;;;;5004011;28;20411;-69
2021/03/03 10:15:08;;;;;;;3.90;3.20;;;12.20;91.00;;;;;;5004599;28;20391;-70
2021/03/03 10:17:39;;;;;;;4.45;3.67;;;11.90;82.90;;;;;;5005177;28;20392;-70
2021/03/03 10:20:08;;;;;;;5.10;3.70;;;11.90;76.90;;;;;;5004862;28;20443;-68
2021/03/03 10:22:35;;;;;;;6.47;3.40;;;12.30;81.50;;;;;;5001688;28;20424;-69
2021/03/03 10:25:05;;;;;;;6.38;3.05;;;12.60;82.10;;;;;;5005263;28;20439;-69
2021/03/03 10:27:39;;;;;;;6.45;3.80;;;12.60;90.00;;;;;;5002999;28;20451;-69
2021/03/03 10:30:25;;;;;;;8.30;3.95;;;13.40;80.60;;;;;;5003831;28;20437;-68
2021/03/03 10:32:55;;;;;;;4.68;3.60;;;12.90;87.80;;;;;;5003163;28;20892;-68
2021/03/03 10:35:26;;;;;;;4.90;3.58;;;13.10;78.60;;;;;;5004554;28;20920;-71
2021/03/03 10:37:53;;;;;;;4.93;3.33;;;13.50;78.90;;;;;;5003487;28;20403;-69
2021/03/03 10:40:20;;;;;;;5.75;3.10;;;13.10;76.80;;;;;;5004277;28;20392;-68
2021/03/03 10:42:47;;;;;;;8.35;3.50;;;13.80;72.10;;;;;;5003198;28;20424;-70
2021/03/03 10:45:24;;;;;;;4.10;2.70;;;14.00;72.50;;;;;;5004247;28;20435;-69
2021/03/03 10:47:50;;;;;;;6.57;3.13;;;13.60;74.10;;;;;;5002533;28;20485;-68
2021/03/03 10:50:21;;;;;;;5.03;3.30;;;13.80;73.60;;;;;;5001838;28;20405;-69
2021/03/03 10:53:01;;;;;;;4.30;2.60;;;13.30;68.60;;;;;;5001640;28;20401;-71
2021/03/03 10:55:35;;;;;;;5.00;2.80;;;14.00;64.40;;;;;;5004818;28;20404;-71
2021/03/03 10:58:03;;;;;;;4.38;3.00;;;14.10;68.10;;;;;;5001869;28;20975;-68
2021/03/03 11:00:29;;;;;;;3.38;2.40;;;14.10;67.80;;;;;;5002215;28;21055;-69
2021/03/03 11:03:13;;;;;;;2.90;2.65;;;14.20;67.20;;;;;;5003794;28;20409;-71
2021/03/03 11:05:39;;;;;;;3.10;2.70;;;14.00;66.30;;;;;;5003608;28;20384;-72
2021/03/03 11:08:05;;;;;;;4.10;3.08;;;14.30;75.80;;;;;;4999952;28;20973;-69
2021/03/03 11:10:30;;;;;;;3.67;3.28;;;14.20;66.30;;;;;;5003464;28;20397;-69
2021/03/03 11:13:00;;;;;;;4.17;2.60;;;14.70;65.50;;;;;;5002800;28;20408;-70
2021/03/03 11:15:26;;;;;;;5.18;2.80;;;14.50;76.80;;;;;;5003045;28;20405;-68
2021/03/03 11:17:51;;;;;;;4.55;2.92;;;15.10;73.70;;;;;;5003067;28;21139;-69
2021/03/03 11:20:17;;;;;;;4.05;2.70;;;14.90;66.00;;;;;;5002092;28;20387;-70
2021/03/03 11:22:43;;;;;;;4.10;3.20;;;15.00;72.70;;;;;;5004047;28;20505;-71
2021/03/03 11:25:09;;;;;;;4.70;3.50;;;15.00;64.10;;;;;;5003208;28;20459;-69
2021/03/03 11:27:35;;;;;;;3.30;2.70;;;13.20;61.30;;;;;;5002205;28;21079;-69
2021/03/03 11:30:02;;;;;;;3.42;2.70;;;14.50;64.60;;;;;;5000642;28;20513;-69
2021/03/03 11:32:28;;;;;;;7.53;3.10;;;14.90;70.20;;;;;;5017661;28;20523;-69
2021/03/03 11:34:54;;;;;;;4.25;2.80;;;15.30;73.60;;;;;;5005105;28;20405;-70
2021/03/03 11:37:19;;;;;;;4.07;3.42;;;15.00;63.70;;;;;;5000385;28;20476;-69
2021/03/03 11:39:45;;;;;;;4.75;3.03;;;15.10;68.40;;;;;;5001844;28;20393;-71
2021/03/03 11:42:11;;;;;;;4.18;3.20;;;15.20;61.20;;;;;;5004006;28;20880;-68
2021/03/03 11:44:37;;;;;;;5.03;3.70;;;15.10;62.00;;;;;;5002764;28;20393;-69
2021/03/03 11:47:02;;;;;;;3.63;3.07;;;15.50;72.40;;;;;;5001125;28;21036;-70
2021/03/03 11:49:28;;;;;;;7.40;4.00;;;15.20;59.70;;;;;;5003115;28;20789;-69
2021/03/03 11:51:54;;;;;;;5.50;4.17;;;15.60;58.00;;;;;;5012843;28;20411;-68
2021/03/03 11:54:19;;;;;;;8.52;5.60;;;16.10;67.10;;;;;;5002326;28;20392;-71
2021/03/03 11:56:46;;;;;;;9.35;6.72;;;15.40;56.60;;;;;;5007744;28;20397;-71
2021/03/03 11:59:12;;;;;;;10.52;6.93;;;14.40;63.40;;;;;;5002323;28;20397;-69
2021/03/03 12:01:37;;;;;;;13.43;7.77;;;16.70;66.30;;;;;;5003409;28;20416;-69
2021/03/03 12:04:03;;;;;;;13.93;7.80;;;15.50;59.20;;;;;;5003145;28;20404;-69
2021/03/03 12:06:29;;;;;;;13.52;6.97;;;15.50;59.10;;;;;;5005357;28;20381;-68
2021/03/03 12:08:55;;;;;;;11.57;7.60;;;15.90;70.20;;;;;;5010002;28;20392;-67
2021/03/03 12:11:20;;;;;;;10.90;6.93;;;15.50;61.60;;;;;;5010797;28;20464;-68
2021/03/03 12:13:46;;;;;;;8.50;6.30;;;15.70;64.30;;;;;;5010470;28;20387;-71
2021/03/03 12:16:12;;;;;;;12.13;7.90;;;16.10;59.00;;;;;;5010220;28;20865;-69
2021/03/03 12:18:37;;;;;;;9.17;6.17;;;16.10;59.50;;;;;;5010570;28;20804;-69
2021/03/03 12:21:03;;;;;;;12.30;6.70;;;15.50;68.90;;;;;;5008837;28;20384;-68
2021/03/03 12:23:29;;;;;;;9.88;5.80;;;15.60;58.40;;;;;;5010207;28;20420;-68
2021/03/03 12:25:54;;;;;;;9.93;6.57;;;15.90;60.20;;;;;;5010199;28;20857;-68
2021/03/03 12:28:22;;;;;;;7.73;5.90;;;15.60;59.00;;;;;;5010186;28;20417;-67
2021/03/03 12:30:47;;;;;;;11.25;7.03;;;15.30;58.30;;;;;;5010277;28;20749;-71
2021/03/03 12:33:13;;;;;;;12.73;6.78;;;15.30;59.40;;;;;;5010580;28;20381;-68
2021/03/03 12:35:39;;;;;;;9.60;6.35;;;15.80;65.60;;;;;;5011326;28;20921;-69
2021/03/03 12:38:04;;;;;;;10.87;7.37;;;15.00;60.00;;;;;;5005381;28;20631;-69
2021/03/03 12:40:30;;;;;;;11.87;6.30;;;15.40;59.80;;;;;;4990792;28;20399;-68
2021/03/03 12:42:56;;;;;;;11.80;6.90;;;15.50;70.30;;;;;;5005620;28;20546;-67
2021/03/03 12:45:21;;;;;;;12.30;7.60;;;15.60;61.30;;;;;;5005987;28;20438;-69
2021/03/03 12:47:48;;;;;;;10.77;6.28;;;15.10;60.30;;;;;;4990476;28;20391;-70
2021/03/03 12:50:17;;;;;;;12.70;6.78;;;15.10;68.20;;;;;;4990519;28;20465;-72
2021/03/03 12:52:43;;;;;;;11.73;6.45;;;15.40;63.50;;;;;;4990751;28;20413;-69
2021/03/03 12:55:09;;;;;;;9.98;7.20;;;15.10;61.00;;;;;;4990402;28;20375;-69
2021/03/03 12:57:35;;;;;;;9.40;6.20;;;15.30;59.60;;;;;;4995160;28;20402;-69
2021/03/03 13:00:01;;;;;;;11.30;6.43;;;15.80;69.30;;;;;;4990260;28;20398;-69
2021/03/03 13:02:26;;;;;;;10.50;6.00;;;15.20;59.60;;;;;;4989676;28;20418;-69